Ocean Pines, Maryland
Current Conditions -  °F | °C
As of 3:53 AM on Wednesday 22 Oct 2014 (Local Time) from KOXB Reporting Station
Haze Haze  
Wind Chill: 54°   Ceiling: 10000
Heat Index: 54°   Visibility: 5mi
Dew Point: 52°   Wind: 5mph
Humidity: 93%   Direction: 360°N
Pressure: 29.79"   Gusts: NA
Location:  38.3252°N, 75.2176°W
Report Text: KOXB 220753Z AUTO 36004KT 5SM BR BKN100 12/11 A2979 RMK AO2 SLP086 T01220111 TSNO
Loading
Personal Weather Stations






























Interactive Weather Map
Tropical Storm Tracking
New forecast layout! Learn more

10-Day Weather Forecast

Advertisements
Track Severe Weather on mobile